Time;durP1;ratioP1;P1;durP2;ratioP2;P2;SDS_P1;SDS_P2;PMS_P1;PMS_P2;Temp;Humidity;BMP_temperature;BMP_pressure;BME280_temperature;BME280_humidity;BME280_pressure;Samples;Min_cycle;Max_cycle;Signal;HPM_P1;HPM_P2
2023/09/11 00:00:59;;;;;;;29.40;20.50;;;17.00;99.90;;;;;;4993431;28;20467;-72
2023/09/11 00:03:26;;;;;;;32.43;21.93;;;17.00;99.90;;;;;;4993896;28;20424;-72
2023/09/11 00:05:54;;;;;;;30.47;21.20;;;16.90;99.90;;;;;;4993045;28;20491;-73
2023/09/11 00:08:21;;;;;;;27.80;22.10;;;16.90;99.90;;;;;;4993757;28;20416;-72
2023/09/11 00:10:46;;;;;;;25.23;19.47;;;16.90;99.90;;;;;;4993814;28;20381;-71
2023/09/11 00:13:12;;;;;;;28.37;20.50;;;16.90;99.90;;;;;;4993945;28;20397;-73
2023/09/11 00:15:41;;;;;;;24.50;21.17;;;16.80;1.00;;;;;;4992742;28;20456;-71
2023/09/11 00:18:10;;;;;;;25.03;21.10;;;16.80;1.00;;;;;;4993011;28;20269;-71
2023/09/11 00:20:36;;;;;;;34.27;20.33;;;16.80;1.00;;;;;;4993769;28;20432;-73
2023/09/11 00:23:02;;;;;;;41.90;21.20;;;16.80;1.00;;;;;;4993491;28;20432;-71
2023/09/11 00:25:28;;;;;;;32.53;22.07;;;16.80;1.00;;;;;;4992519;28;20448;-70
2023/09/11 00:27:55;;;;;;;36.20;21.70;;;16.80;1.00;;;;;;4993569;28;20923;-71
2023/09/11 00:30:21;;;;;;;30.47;20.67;;;16.80;1.00;;;;;;4993421;28;20412;-72
2023/09/11 00:32:50;;;;;;;34.90;20.60;;;16.80;1.00;;;;;;4993442;28;20385;-71
2023/09/11 00:35:31;;;;;;;49.87;20.87;;;16.80;1.00;;;;;;4992377;28;20810;-71
2023/09/11 00:38:06;;;;;;;38.70;21.07;;;16.80;1.00;;;;;;4993392;28;20424;-71
2023/09/11 00:40:33;;;;;;;31.40;21.17;;;16.80;1.00;;;;;;4993497;28;20466;-73
2023/09/11 00:43:02;;;;;;;28.97;21.50;;;16.80;1.00;;;;;;4993353;28;20412;-71
2023/09/11 00:45:29;;;;;;;36.70;21.60;;;16.80;1.00;;;;;;4992565;28;20463;-71
2023/09/11 00:47:55;;;;;;;30.30;21.70;;;16.80;1.00;;;;;;4993593;28;21033;-71
2023/09/11 00:50:23;;;;;;;34.90;22.00;;;16.80;1.00;;;;;;4993245;28;20458;-73
2023/09/11 00:52:50;;;;;;;27.70;18.50;;;16.80;1.00;;;;;;4975902;28;20471;-71
2023/09/11 00:55:17;;;;;;;26.80;21.67;;;16.70;1.00;;;;;;4992179;28;20404;-72
2023/09/11 00:57:43;;;;;;;35.33;20.70;;;16.70;1.00;;;;;;4993203;28;20856;-73
2023/09/11 01:00:15;;;;;;;31.87;22.20;;;16.70;1.00;;;;;;4993305;28;20404;-73
2023/09/11 01:02:44;;;;;;;34.73;22.33;;;16.70;1.00;;;;;;4993303;28;20423;-73
2023/09/11 01:05:20;;;;;;;;;;;;;;;;;;;;;
2023/09/11 01:07:46;;;;;;;32.63;21.20;;;16.80;1.00;;;;;;4992848;28;20420;-71
2023/09/11 01:10:15;;;;;;;24.83;19.97;;;16.90;1.00;;;;;;4993227;28;20404;-71
2023/09/11 01:12:51;;;;;;;32.10;20.97;;;16.80;1.00;;;;;;4992523;28;20735;-71
2023/09/11 01:15:17;;;;;;;36.47;20.93;;;16.80;1.00;;;;;;4992466;28;20400;-72
2023/09/11 01:17:49;;;;;;;49.40;21.77;;;16.90;1.00;;;;;;4992988;28;20427;-71
2023/09/11 01:20:34;;;;;;;47.00;20.37;;;16.90;1.00;;;;;;4992989;28;20416;-73
2023/09/11 01:23:21;;;;;;;30.30;19.73;;;16.90;1.00;;;;;;4993133;28;20412;-71
2023/09/11 01:29:28;;;;;;;40.63;21.73;;;17.00;1.00;;;;;;4920607;28;20470;-71
2023/09/11 01:35:20;;;;;;;;;;;;;;;;;;;;;
2023/09/11 01:37:57;;;;;;;40.47;21.53;;;17.00;1.00;;;;;;4992454;28;20426;-71
2023/09/11 01:40:30;;;;;;;36.57;21.00;;;17.00;1.00;;;;;;4996038;28;20507;-73
2023/09/11 01:43:02;;;;;;;31.80;20.00;;;17.00;1.00;;;;;;4996390;28;20426;-73
2023/09/11 01:45:31;;;;;;;33.03;19.63;;;17.00;1.00;;;;;;4995393;28;20455;-70
2023/09/11 01:48:00;;;;;;;34.73;22.07;;;17.00;1.00;;;;;;4996565;28;20428;-74
2023/09/11 01:50:29;;;;;;;43.37;22.30;;;17.00;1.00;;;;;;4995884;28;20408;-71
2023/09/11 01:53:07;;;;;;;41.47;23.67;;;17.00;1.00;;;;;;4996257;28;20446;-74
2023/09/11 01:55:34;;;;;;;28.00;21.83;;;17.00;1.00;;;;;;4995384;28;20404;-73
2023/09/11 01:58:01;;;;;;;45.33;21.60;;;17.00;1.00;;;;;;4996587;28;20462;-71
2023/09/11 02:00:27;;;;;;;32.07;22.33;;;17.10;1.00;;;;;;4996215;28;20416;-71
2023/09/11 02:02:55;;;;;;;32.60;20.13;;;17.10;1.00;;;;;;4996118;28;20467;-73
2023/09/11 02:05:29;;;;;;;28.60;21.00;;;17.20;1.00;;;;;;4995248;28;20471;-71
2023/09/11 02:08:00;;;;;;;26.27;20.07;;;17.10;1.00;;;;;;4995793;28;20420;-71
2023/09/11 02:10:26;;;;;;;37.97;21.10;;;17.10;1.00;;;;;;4995664;28;20408;-70
2023/09/11 02:12:55;;;;;;;45.80;23.30;;;17.10;1.00;;;;;;4995837;28;20954;-71
2023/09/11 02:15:29;;;;;;;36.30;21.23;;;17.00;1.00;;;;;;4995058;28;20416;-71
2023/09/11 02:18:14;;;;;;;36.50;21.57;;;17.10;1.00;;;;;;4978497;28;20498;-71
2023/09/11 02:20:40;;;;;;;35.60;22.00;;;17.10;1.00;;;;;;4995923;28;20424;-71
2023/09/11 02:23:09;;;;;;;43.67;23.03;;;17.20;1.00;;;;;;4995659;28;20423;-74
2023/09/11 02:25:35;;;;;;;39.47;22.30;;;17.20;1.00;;;;;;4994730;28;20548;-73
2023/09/11 02:28:01;;;;;;;39.77;23.27;;;17.20;5.90;;;;;;4995573;28;20482;-73
2023/09/11 02:30:30;;;;;;;41.43;22.90;;;17.20;10.50;;;;;;4995220;28;20404;-71
2023/09/11 02:32:58;;;;;;;39.80;24.13;;;17.10;9.10;;;;;;4995477;28;20409;-72
2023/09/11 02:35:36;;;;;;;34.90;23.70;;;17.20;14.90;;;;;;4994546;28;20458;-72
2023/09/11 02:38:01;;;;;;;52.53;23.83;;;17.20;26.20;;;;;;4995569;28;20428;-71
2023/09/11 02:40:27;;;;;;;42.07;22.37;;;17.20;39.60;;;;;;4995500;28;20479;-71
2023/09/11 02:42:53;;;;;;;55.40;24.67;;;17.20;39.50;;;;;;4995380;28;20408;-70
2023/09/11 02:45:23;;;;;;;39.23;22.10;;;17.10;39.50;;;;;;4993908;28;20518;-73
2023/09/11 02:47:49;;;;;;;29.33;21.87;;;17.10;39.50;;;;;;4995191;28;20464;-71
2023/09/11 02:50:15;;;;;;;36.33;19.93;;;17.00;51.20;;;;;;4994396;28;20401;-73
2023/09/11 02:52:51;;;;;;;;;;;;;;;;;;;;;
2023/09/11 02:55:17;;;;;;;30.40;18.60;;;17.00;74.80;;;;;;4994388;28;20415;-73
2023/09/11 02:57:43;;;;;;;34.30;19.07;;;16.90;78.10;;;;;;4994961;28;20431;-74
2023/09/11 03:00:10;;;;;;;25.57;17.90;;;16.90;77.90;;;;;;4994996;28;20408;-73
2023/09/11 03:03:13;;;;;;;32.40;16.93;;;16.80;77.40;;;;;;4994310;28;20397;-73
2023/09/11 03:05:39;;;;;;;25.80;18.00;;;16.80;80.20;;;;;;4993816;28;20462;-73
2023/09/11 03:08:17;;;;;;;24.30;17.73;;;16.80;85.90;;;;;;4994827;28;20929;-73
2023/09/11 03:10:46;;;;;;;21.50;17.50;;;16.80;85.90;;;;;;4994762;28;20411;-72
2023/09/11 03:13:12;;;;;;;31.83;17.23;;;16.90;90.20;;;;;;4994902;28;20471;-71
2023/09/11 03:15:38;;;;;;;26.77;15.73;;;16.80;90.00;;;;;;4993807;28;20475;-72
2023/09/11 03:18:04;;;;;;;37.50;17.90;;;16.80;89.40;;;;;;4994731;28;20200;-73
2023/09/11 03:20:30;;;;;;;21.93;16.43;;;16.70;85.80;;;;;;4994686;28;20924;-74
2023/09/11 03:23:01;;;;;;;23.60;16.03;;;16.60;85.60;;;;;;4994067;28;20467;-71
2023/09/11 03:25:57;;;;;;;33.70;16.40;;;16.70;85.90;;;;;;4993563;28;20471;-71
2023/09/11 03:28:28;;;;;;;20.60;14.40;;;16.70;86.40;;;;;;4994542;28;20436;-73
2023/09/11 03:31:25;;;;;;;28.77;16.10;;;16.70;85.80;;;;;;4994495;28;20408;-71
2023/09/11 03:33:51;;;;;;;22.57;15.00;;;16.70;85.80;;;;;;4993789;28;20428;-71
2023/09/11 03:36:18;;;;;;;21.40;14.90;;;16.70;85.70;;;;;;4993482;28;20419;-71
2023/09/11 03:38:44;;;;;;;21.03;15.03;;;16.70;85.70;;;;;;4994452;28;20653;-73
2023/09/11 03:41:14;;;;;;;22.17;15.30;;;16.60;83.20;;;;;;4993683;28;20926;-74
2023/09/11 03:43:40;;;;;;;23.43;14.03;;;16.60;79.90;;;;;;4994107;28;20416;-71
2023/09/11 03:46:13;;;;;;;24.27;13.63;;;16.60;79.60;;;;;;4991202;28;20468;-73
2023/09/11 03:48:42;;;;;;;18.87;13.87;;;16.60;78.70;;;;;;4994233;28;20418;-74
2023/09/11 03:51:08;;;;;;;32.00;16.33;;;16.60;74.70;;;;;;4994209;28;20412;-71
2023/09/11 03:53:34;;;;;;;29.40;13.57;;;16.50;69.30;;;;;;4992873;28;20442;-73
2023/09/11 03:56:02;;;;;;;27.80;14.10;;;16.50;71.40;;;;;;4993168;28;20467;-71
2023/09/11 03:58:28;;;;;;;20.80;13.13;;;16.50;70.40;;;;;;4994024;28;20428;-74
2023/09/11 04:00:54;;;;;;;33.37;15.00;;;16.50;72.90;;;;;;4992311;28;20457;-71
2023/09/11 04:03:23;;;;;;;38.73;14.10;;;16.50;72.30;;;;;;4993804;28;20769;-71
2023/09/11 04:05:49;;;;;;;24.13;15.70;;;16.50;76.00;;;;;;4992870;28;20470;-72
2023/09/11 04:12:02;;;;;;;23.83;15.13;;;16.60;85.70;;;;;;4991298;28;20893;-73
2023/09/11 04:14:28;;;;;;;38.23;15.63;;;16.60;85.60;;;;;;4993720;28;20462;-71
2023/09/11 04:17:00;;;;;;;26.03;14.63;;;16.60;85.70;;;;;;4989252;28;20547;-73
2023/09/11 04:19:29;;;;;;;31.10;15.40;;;16.70;85.80;;;;;;4993189;28;20901;-71
2023/09/11 04:21:55;;;;;;;41.60;15.80;;;16.70;85.70;;;;;;4993711;28;20416;-71
2023/09/11 04:24:24;;;;;;;49.20;15.50;;;16.60;85.70;;;;;;4993642;28;20411;-74
2023/09/11 04:26:50;;;;;;;36.73;15.80;;;16.70;85.70;;;;;;4975088;28;20480;-71
2023/09/11 04:29:16;;;;;;;31.03;15.90;;;16.60;85.70;;;;;;4993801;28;20412;-73
2023/09/11 04:31:48;;;;;;;47.57;16.10;;;16.60;85.60;;;;;;4990880;28;20519;-74
2023/09/11 04:34:14;;;;;;;26.83;14.83;;;16.60;85.60;;;;;;4993423;28;20889;-71
2023/09/11 04:36:43;;;;;;;26.40;15.27;;;16.60;85.70;;;;;;4992367;28;20428;-70
2023/09/11 04:39:11;;;;;;;29.50;16.90;;;16.60;85.70;;;;;;4991955;28;20924;-74
2023/09/11 04:41:41;;;;;;;37.37;15.70;;;16.60;85.70;;;;;;4993418;28;20411;-71
2023/09/11 04:44:07;;;;;;;39.83;14.50;;;16.60;85.70;;;;;;4992430;28;20439;-70
2023/09/11 04:50:40;;;;;;;17.77;14.97;;;16.50;85.60;;;;;;4955895;28;20413;-74
2023/09/11 04:53:12;;;;;;;46.10;15.00;;;16.50;85.50;;;;;;4992882;28;20486;-72
2023/09/11 04:55:38;;;;;;;18.27;15.53;;;16.50;85.60;;;;;;4992251;28;20917;-74
2023/09/11 04:58:06;;;;;;;28.03;15.73;;;16.50;85.60;;;;;;4993086;28;20474;-74
2023/09/11 05:00:33;;;;;;;40.97;16.23;;;16.60;85.70;;;;;;4990719;28;20443;-74
2023/09/11 05:03:09;;;;;;;35.87;16.10;;;16.50;85.60;;;;;;4993302;28;20404;-73
2023/09/11 05:05:40;;;;;;;19.80;15.53;;;16.50;85.70;;;;;;4992192;28;20956;-73
2023/09/11 05:08:26;;;;;;;25.43;15.00;;;16.60;87.80;;;;;;4993070;28;20490;-72
2023/09/11 05:10:52;;;;;;;21.30;15.13;;;16.50;85.60;;;;;;4992393;28;20431;-71
2023/09/11 05:13:22;;;;;;;18.00;15.30;;;16.50;87.70;;;;;;4992273;28;20443;-70
2023/09/11 05:15:48;;;;;;;41.53;16.47;;;16.50;91.90;;;;;;4993151;28;20188;-74
2023/09/11 05:18:15;;;;;;;45.03;16.53;;;16.50;91.30;;;;;;4996823;28;20447;-74
2023/09/11 05:20:41;;;;;;;26.27;15.00;;;16.50;85.60;;;;;;4997018;28;20444;-71
2023/09/11 05:23:07;;;;;;;59.67;14.50;;;16.30;85.40;;;;;;4996929;28;20461;-74
2023/09/11 05:25:34;;;;;;;25.37;12.80;;;16.30;85.40;;;;;;4995493;28;20951;-71
2023/09/11 05:28:00;;;;;;;29.33;14.43;;;16.30;85.50;;;;;;4996439;28;20428;-72
2023/09/11 05:30:29;;;;;;;21.60;12.67;;;16.40;85.50;;;;;;4992999;28;20473;-74
2023/09/11 05:33:08;;;;;;;39.17;14.03;;;16.40;85.50;;;;;;4996588;28;20404;-71
2023/09/11 05:35:34;;;;;;;37.53;13.67;;;16.40;85.50;;;;;;4995797;28;20926;-71
2023/09/11 05:38:02;;;;;;;35.97;13.10;;;16.40;85.50;;;;;;4996519;28;20518;-74
2023/09/11 05:40:28;;;;;;;32.73;14.07;;;16.40;85.50;;;;;;4996510;28;20420;-71
2023/09/11 05:43:05;;;;;;;18.47;13.40;;;16.40;85.50;;;;;;4996424;28;20766;-74
2023/09/11 05:49:40;;;;;;;;;;;;;;;;;;;;;
2023/09/11 05:52:24;;;;;;;39.77;14.17;;;16.50;85.70;;;;;;4935720;29;20410;-75
2023/09/11 05:55:20;;;;;;;27.80;13.70;;;16.50;85.70;;;;;;4936262;29;20423;-75
2023/09/11 05:57:48;;;;;;;22.80;14.10;;;16.50;85.60;;;;;;4979267;28;20463;-70
2023/09/11 06:00:14;;;;;;;19.87;14.40;;;16.50;85.60;;;;;;4978194;28;20435;-69
2023/09/11 06:06:19;;;;;;;19.80;14.50;;;16.60;91.90;;;;;;4955386;28;20484;-70
2023/09/11 06:09:33;;;;;;;20.10;15.00;;;16.70;93.20;;;;;;4939147;29;20450;-73
2023/09/11 06:12:21;;;;;;;19.87;15.03;;;16.70;93.20;;;;;;4945056;29;20418;-70
2023/09/11 06:14:22;;;;;;;17.80;13.90;;;16.80;92.80;;;;;;4945269;29;20434;-70
2023/09/11 06:16:51;;;;;;;15.57;13.80;;;16.80;92.90;;;;;;4976035;28;20439;-73
2023/09/11 06:19:40;;;;;;;19.47;15.07;;;16.80;92.40;;;;;;4995781;28;20967;-73
2023/09/11 06:25:38;;;;;;;;;;;;;;;;;;;;;
2023/09/11 06:28:58;;;;;;;19.87;14.37;;;16.90;94.30;;;;;;4995703;28;20434;-73
2023/09/11 06:31:28;;;;;;;24.27;15.20;;;17.00;95.90;;;;;;4995016;28;20404;-72
2023/09/11 06:34:40;;;;;;;30.77;13.90;;;17.00;97.10;;;;;;4995677;28;20404;-74
2023/09/11 06:40:41;;;;;;;19.20;15.90;;;17.00;90.50;;;;;;4953981;28;20873;-73
2023/09/11 06:43:15;;;;;;;21.00;16.00;;;17.10;86.40;;;;;;4954453;28;20442;-71
2023/09/11 06:45:59;;;;;;;23.77;14.77;;;17.10;86.10;;;;;;4990110;28;20570;-71
2023/09/11 06:48:45;;;;;;;21.20;15.80;;;17.10;86.10;;;;;;4995046;28;20459;-74
2023/09/11 06:51:59;;;;;;;18.47;15.27;;;17.10;78.60;;;;;;4978042;28;20408;-71
2023/09/11 06:54:56;;;;;;;;;;;;;;;;;;;;;
2023/09/11 06:58:06;;;;;;;17.33;15.63;;;17.20;86.10;;;;;;4934007;28;20437;-71
2023/09/11 07:00:52;;;;;;;19.80;16.53;;;17.30;86.60;;;;;;4919173;29;20434;-71
2023/09/11 07:03:20;;;;;;;20.90;17.50;;;17.40;91.90;;;;;;4919114;29;20833;-73
2023/09/11 07:09:10;;;;;;;22.50;17.10;;;17.50;90.90;;;;;;4924952;29;20450;-71
2023/09/11 07:11:36;;;;;;;18.27;15.90;;;17.40;86.30;;;;;;4967772;28;20420;-74
2023/09/11 07:14:06;;;;;;;20.37;18.00;;;17.50;86.40;;;;;;4994815;28;20408;-71
2023/09/11 07:16:32;;;;;;;19.93;16.20;;;17.60;91.70;;;;;;4993197;28;20424;-74
2023/09/11 07:19:16;;;;;;;20.10;17.33;;;17.70;93.60;;;;;;4994799;28;20392;-74
2023/09/11 07:24:58;;;;;;;22.40;18.80;;;17.80;86.80;;;;;;4994610;28;20423;-72
2023/09/11 07:27:32;;;;;;;22.60;17.87;;;17.90;89.70;;;;;;4993578;28;20995;-72
2023/09/11 07:30:20;;;;;;;25.63;19.30;;;17.90;86.80;;;;;;4994709;28;20396;-74
2023/09/11 07:39:09;;;;;;;23.70;20.07;;;18.10;74.50;;;;;;4994363;28;20423;-70
2023/09/11 07:41:54;;;;;;;24.97;18.27;;;18.30;77.80;;;;;;4994268;28;20404;-71
2023/09/11 07:48:06;;;;;;;24.13;20.17;;;18.50;71.40;;;;;;4993853;28;20963;-71
2023/09/11 07:50:43;;;;;;;24.63;20.70;;;18.70;41.10;;;;;;4994381;28;20412;-74
2023/09/11 07:53:12;;;;;;;24.97;20.53;;;18.70;33.10;;;;;;4994103;28;20825;-73
2023/09/11 07:56:28;;;;;;;23.80;19.17;;;18.70;1.00;;;;;;4975315;28;20415;-73
2023/09/11 07:59:06;;;;;;;21.37;19.07;;;18.70;1.00;;;;;;4993937;28;20412;-70
2023/09/11 08:01:51;;;;;;;25.03;19.00;;;18.80;1.00;;;;;;4994116;28;20927;-73
2023/09/11 08:04:57;;;;;;;25.23;21.00;;;18.80;1.00;;;;;;4993833;28;20520;-73
2023/09/11 08:10:36;;;;;;;26.17;20.43;;;19.00;1.00;;;;;;4993429;28;20434;-73
2023/09/11 08:13:23;;;;;;;26.17;21.37;;;19.00;1.00;;;;;;4993556;28;20435;-70
2023/09/11 08:16:51;;;;;;;;;;;;;;;;;;;;;
2023/09/11 08:20:14;;;;;;;27.40;21.90;;;19.00;1.00;;;;;;4993795;28;20394;-70
2023/09/11 08:26:48;;;;;;;31.20;23.30;;;19.20;1.00;;;;;;4971127;28;20483;-70
2023/09/11 08:29:44;;;;;;;26.23;22.70;;;19.30;1.00;;;;;;4972021;28;20516;-73
2023/09/11 08:32:40;;;;;;;;;;;;;;;;;;;;;
2023/09/11 08:35:07;;;;;;;30.53;23.30;;;19.30;1.00;;;;;;4978424;28;20420;-72
2023/09/11 08:44:38;;;;;;;32.13;20.53;;;19.70;1.00;;;;;;4993375;28;20395;-70
2023/09/11 08:47:06;;;;;;;26.10;21.27;;;19.80;1.00;;;;;;4974961;28;20460;-73
2023/09/11 08:49:43;;;;;;;27.80;22.33;;;19.90;1.00;;;;;;4994907;28;20424;-70
2023/09/11 08:52:29;;;;;;;24.90;21.03;;;20.00;1.00;;;;;;4997193;28;20396;-70
2023/09/11 08:54:58;;;;;;;31.73;22.67;;;20.20;1.00;;;;;;4997339;28;20487;-73
2023/09/11 08:57:26;;;;;;;23.87;20.17;;;20.50;1.00;;;;;;4996443;28;20913;-73
2023/09/11 09:00:04;;;;;;;23.57;19.20;;;20.70;1.00;;;;;;4979714;28;20416;-75
2023/09/11 09:02:34;;;;;;;27.17;20.23;;;20.90;1.00;;;;;;4997220;28;20407;-72
2023/09/11 09:05:03;;;;;;;23.00;19.23;;;21.10;1.00;;;;;;4996632;28;20418;-73
2023/09/11 09:07:33;;;;;;;26.23;21.07;;;21.30;1.00;;;;;;4978596;28;20428;-74
2023/09/11 09:10:00;;;;;;;23.27;19.43;;;21.60;1.00;;;;;;4997274;28;20404;-74
2023/09/11 09:12:27;;;;;;;24.33;20.30;;;21.70;99.90;;;;;;4996994;28;20427;-74
2023/09/11 09:14:53;;;;;;;20.20;17.83;;;21.80;99.90;;;;;;4997085;28;20490;-70
2023/09/11 09:17:19;;;;;;;19.67;16.67;;;22.00;99.90;;;;;;4995727;28;21015;-75
2023/09/11 09:19:45;;;;;;;19.67;17.57;;;22.20;99.90;;;;;;4996547;28;20483;-74
2023/09/11 09:22:12;;;;;;;19.03;15.87;;;22.50;99.90;;;;;;4996973;28;20161;-74
2023/09/11 09:24:48;;;;;;;19.00;15.87;;;22.90;99.90;;;;;;4996523;28;20495;-70
2023/09/11 09:27:14;;;;;;;20.27;16.30;;;23.30;99.90;;;;;;4978774;28;20495;-71
2023/09/11 09:29:39;;;;;;;17.17;14.70;;;23.50;99.90;;;;;;4996796;28;20446;-71
2023/09/11 09:32:08;;;;;;;19.70;17.60;;;23.70;99.90;;;;;;4996593;28;20165;-75
2023/09/11 09:34:35;;;;;;;20.67;17.17;;;23.90;99.90;;;;;;4979077;28;20533;-69
2023/09/11 09:37:01;;;;;;;17.92;16.02;;;24.10;99.90;;;;;;4977290;28;20432;-75
2023/09/11 09:39:29;;;;;;;17.43;15.63;;;24.30;99.90;;;;;;4996556;28;20649;-71
2023/09/11 09:42:01;;;;;;;16.17;14.40;;;24.30;99.90;;;;;;4996732;28;20768;-72
2023/09/11 09:44:33;;;;;;;16.23;14.17;;;24.30;99.90;;;;;;4995714;28;20495;-72
2023/09/11 09:47:09;;;;;;;16.57;14.83;;;24.20;99.90;;;;;;4995433;28;20470;-76
2023/09/11 09:49:53;;;;;;;19.43;14.53;;;24.20;99.90;;;;;;4996316;28;20410;-76
2023/09/11 09:52:25;;;;;;;14.87;13.40;;;24.20;99.90;;;;;;4996456;28;20412;-75
2023/09/11 09:54:54;;;;;;;16.43;14.83;;;24.30;97.40;;;;;;4988842;28;20414;-71
2023/09/11 09:57:22;;;;;;;15.10;13.47;;;24.40;97.40;;;;;;4995437;28;20822;-70
2023/09/11 09:59:53;;;;;;;16.13;13.47;;;24.70;97.50;;;;;;4995335;28;20400;-71
2023/09/11 10:02:27;;;;;;;14.67;12.80;;;25.10;94.30;;;;;;4996172;28;20392;-70
2023/09/11 10:04:58;;;;;;;15.03;12.90;;;25.60;86.70;;;;;;4996110;28;20404;-75
2023/09/11 10:07:46;;;;;;;13.87;12.47;;;26.00;63.70;;;;;;4995164;28;20424;-74
2023/09/11 10:10:29;;;;;;;15.10;12.07;;;26.40;39.20;;;;;;4996126;28;20431;-70
2023/09/11 10:13:12;;;;;;;14.20;12.50;;;26.80;20.40;;;;;;4995750;28;20456;-71
2023/09/11 10:15:40;;;;;;;12.10;10.77;;;26.90;1.00;;;;;;4995033;28;20408;-72
2023/09/11 10:18:11;;;;;;;14.40;12.83;;;26.80;1.00;;;;;;4995383;28;20420;-72
2023/09/11 10:20:37;;;;;;;12.73;11.10;;;26.90;1.00;;;;;;4995995;28;20440;-71
2023/09/11 10:23:05;;;;;;;13.83;11.57;;;27.20;1.00;;;;;;4995633;28;20400;-75
2023/09/11 10:25:38;;;;;;;11.40;10.10;;;27.50;1.00;;;;;;4977638;28;20478;-75
2023/09/11 10:28:11;;;;;;;11.03;10.00;;;27.60;1.00;;;;;;4995675;28;20420;-74
2023/09/11 10:30:56;;;;;;;11.70;10.63;;;27.80;1.00;;;;;;4995713;28;20408;-71
2023/09/11 10:33:25;;;;;;;12.30;11.00;;;27.90;1.00;;;;;;4994799;28;20423;-74
2023/09/11 10:35:57;;;;;;;14.50;10.03;;;28.20;1.00;;;;;;4977096;28;20750;-72
2023/09/11 10:38:23;;;;;;;12.50;9.53;;;28.20;1.00;;;;;;4995539;28;20867;-72
2023/09/11 10:40:51;;;;;;;13.30;10.17;;;28.50;1.00;;;;;;4995497;28;20498;-71
2023/09/11 10:43:17;;;;;;;10.73;8.77;;;28.40;1.00;;;;;;4995495;28;20173;-72
2023/09/11 10:45:42;;;;;;;11.10;9.40;;;28.50;1.00;;;;;;4994466;28;20459;-75
2023/09/11 10:48:29;;;;;;;10.60;9.60;;;28.50;1.00;;;;;;4977742;28;20432;-72
2023/09/11 10:50:59;;;;;;;10.70;8.73;;;28.70;1.00;;;;;;4994464;28;20193;-75
2023/09/11 10:53:29;;;;;;;15.70;9.40;;;28.90;1.00;;;;;;4995073;28;20412;-74
2023/09/11 10:55:57;;;;;;;12.40;8.60;;;29.20;1.00;;;;;;4976957;28;20463;-75
2023/09/11 10:58:23;;;;;;;11.40;9.80;;;29.30;1.00;;;;;;4995162;28;20463;-76
2023/09/11 11:00:56;;;;;;;10.80;7.80;;;29.40;1.00;;;;;;4995323;28;20404;-76
2023/09/11 11:03:25;;;;;;;16.13;8.10;;;29.60;1.00;;;;;;4977611;28;20908;-73
2023/09/11 11:05:55;;;;;;;11.07;7.50;;;29.70;1.00;;;;;;4994185;28;20471;-72
2023/09/11 11:08:21;;;;;;;17.27;7.90;;;29.80;1.00;;;;;;4994538;28;20424;-71
2023/09/11 11:10:51;;;;;;;9.07;8.23;;;29.60;1.00;;;;;;4994704;28;20889;-76
2023/09/11 11:13:17;;;;;;;8.70;7.90;;;29.40;1.00;;;;;;4994209;28;20909;-76
2023/09/11 11:15:43;;;;;;;15.50;9.10;;;29.00;1.00;;;;;;4976507;28;20421;-71
2023/09/11 11:18:24;;;;;;;12.47;8.13;;;28.60;1.00;;;;;;4994646;28;20269;-76
2023/09/11 11:21:06;;;;;;;10.10;8.80;;;28.30;1.00;;;;;;4994805;28;20430;-76
2023/09/11 11:23:35;;;;;;;15.43;8.03;;;28.10;1.00;;;;;;4994543;28;20502;-76
2023/09/11 11:26:05;;;;;;;14.23;8.10;;;28.00;1.00;;;;;;4993878;28;20543;-72
2023/09/11 11:28:39;;;;;;;12.43;7.57;;;28.00;1.00;;;;;;4994031;28;20495;-76
2023/09/11 11:31:12;;;;;;;10.40;9.00;;;28.20;1.00;;;;;;4994613;28;20395;-72
2023/09/11 11:33:40;;;;;;;10.77;8.27;;;28.20;1.00;;;;;;4994361;28;20397;-72
2023/09/11 11:36:07;;;;;;;11.50;7.20;;;28.00;1.00;;;;;;4993585;28;20400;-72
2023/09/11 11:38:33;;;;;;;17.67;8.90;;;28.00;1.00;;;;;;4994528;28;20435;-72
2023/09/11 11:41:00;;;;;;;17.50;9.20;;;28.20;1.00;;;;;;4994357;28;20396;-72
2023/09/11 11:43:27;;;;;;;13.93;7.20;;;28.50;1.00;;;;;;4994412;28;20165;-74
2023/09/11 11:45:55;;;;;;;18.63;7.53;;;28.60;1.00;;;;;;4992853;28;20459;-76
2023/09/11 11:48:21;;;;;;;12.47;7.30;;;28.80;1.00;;;;;;4994067;28;20423;-72
2023/09/11 11:50:48;;;;;;;12.43;7.40;;;28.80;1.00;;;;;;4993981;28;20396;-72
2023/09/11 11:53:19;;;;;;;11.50;7.63;;;28.90;1.00;;;;;;4994215;28;20169;-76
2023/09/11 11:55:45;;;;;;;18.50;7.10;;;28.90;1.00;;;;;;4993097;28;20412;-72
2023/09/11 11:58:12;;;;;;;15.73;7.80;;;28.90;1.00;;;;;;4994027;28;20465;-72
2023/09/11 12:01:04;;;;;;;13.97;7.33;;;28.90;1.00;;;;;;4994080;28;20407;-76
2023/09/11 12:03:45;;;;;;;20.67;7.00;;;29.10;1.00;;;;;;4976491;28;20435;-72
2023/09/11 12:06:11;;;;;;;14.47;6.70;;;29.20;1.00;;;;;;4992123;28;20498;-75
2023/09/11 12:08:37;;;;;;;15.37;7.37;;;29.20;1.00;;;;;;4993942;28;20801;-73
2023/09/11 12:11:05;;;;;;;16.50;7.83;;;29.30;1.00;;;;;;4993749;28;20227;-76
2023/09/11 12:13:32;;;;;;;15.97;7.60;;;29.30;1.00;;;;;;4993842;28;20428;-76
2023/09/11 12:16:00;;;;;;;20.53;7.90;;;29.30;1.00;;;;;;4992872;28;20404;-75
2023/09/11 12:18:28;;;;;;;16.67;7.30;;;29.30;1.00;;;;;;4993643;28;20431;-77
2023/09/11 12:21:04;;;;;;;14.63;7.33;;;29.30;1.00;;;;;;4993739;28;20445;-71
2023/09/11 12:23:30;;;;;;;13.67;7.70;;;29.20;1.00;;;;;;4984989;28;20800;-71
2023/09/11 12:25:57;;;;;;;23.47;8.47;;;29.10;1.00;;;;;;4972511;28;20818;-72
2023/09/11 12:28:23;;;;;;;13.20;6.93;;;29.10;1.00;;;;;;4980540;28;20432;-76
2023/09/11 12:30:50;;;;;;;18.77;8.30;;;29.20;1.00;;;;;;4975253;28;20521;-76
2023/09/11 12:33:21;;;;;;;15.17;7.30;;;29.40;1.00;;;;;;4992628;28;20419;-76
2023/09/11 12:35:51;;;;;;;10.70;7.37;;;29.50;1.00;;;;;;4974482;28;20416;-72
2023/09/11 12:38:17;;;;;;;17.73;7.80;;;29.60;1.00;;;;;;4992703;28;21221;-72
2023/09/11 12:40:43;;;;;;;16.93;7.17;;;29.60;1.00;;;;;;4992567;28;20424;-73
2023/09/11 12:43:10;;;;;;;18.10;6.90;;;29.80;1.00;;;;;;4992335;28;20466;-69
2023/09/11 12:45:37;;;;;;;12.47;7.07;;;30.20;1.00;;;;;;4991814;28;20255;-73
2023/09/11 12:48:04;;;;;;;19.53;7.40;;;30.60;1.00;;;;;;4993071;28;20419;-72
2023/09/11 12:50:30;;;;;;;11.80;6.50;;;31.10;1.00;;;;;;4993154;28;20897;-72
2023/09/11 12:52:58;;;;;;;13.73;6.37;;;31.80;1.00;;;;;;4993212;28;20400;-73
2023/09/11 12:55:29;;;;;;;13.53;5.83;;;32.40;1.00;;;;;;4992441;28;20749;-73
2023/09/11 12:57:59;;;;;;;26.10;7.37;;;32.90;1.00;;;;;;4993423;28;20522;-70
2023/09/11 13:00:33;;;;;;;13.83;6.60;;;33.60;1.00;;;;;;4992700;28;20400;-73
2023/09/11 13:02:59;;;;;;;15.67;7.17;;;34.30;1.00;;;;;;4993450;28;20404;-73
2023/09/11 13:05:25;;;;;;;18.53;7.57;;;35.10;1.00;;;;;;4992302;28;20958;-72
2023/09/11 13:07:51;;;;;;;24.13;6.80;;;35.60;1.00;;;;;;4993453;28;20923;-69
2023/09/11 13:10:18;;;;;;;18.10;7.07;;;35.80;1.00;;;;;;4993261;28;20411;-73
2023/09/11 13:12:46;;;;;;;12.50;7.63;;;36.50;1.00;;;;;;4993192;28;20430;-71
2023/09/11 13:15:12;;;;;;;10.30;6.80;;;37.10;1.00;;;;;;4975776;28;20924;-73
2023/09/11 13:17:38;;;;;;;14.90;6.97;;;37.50;1.00;;;;;;4992456;28;20438;-69
2023/09/11 13:20:05;;;;;;;13.90;5.47;;;37.30;99.90;;;;;;4992750;28;20173;-69
2023/09/11 13:22:32;;;;;;;21.33;6.90;;;37.20;99.90;;;;;;4993220;28;20224;-74
2023/09/11 13:24:57;;;;;;;18.93;6.37;;;37.80;99.90;;;;;;4993143;28;20425;-73
2023/09/11 13:27:23;;;;;;;12.17;7.13;;;37.80;99.90;;;;;;4974492;28;20994;-68
2023/09/11 13:29:49;;;;;;;15.33;6.57;;;37.90;99.90;;;;;;4993182;28;20524;-71
2023/09/11 13:32:16;;;;;;;14.33;6.40;;;37.60;99.90;;;;;;4992202;28;20169;-69
2023/09/11 13:34:44;;;;;;;16.63;6.50;;;37.20;99.90;;;;;;4993688;28;20227;-72
2023/09/11 13:37:13;;;;;;;14.60;6.73;;;36.90;99.90;;;;;;4995679;28;20438;-67
2023/09/11 13:39:40;;;;;;;26.57;7.77;;;37.00;99.90;;;;;;4996149;28;20399;-68
2023/09/11 13:42:06;;;;;;;12.07;6.67;;;36.60;99.90;;;;;;4996562;28;20450;-72
2023/09/11 13:44:32;;;;;;;16.17;7.00;;;36.20;99.90;;;;;;4996573;28;20498;-72
2023/09/11 13:46:58;;;;;;;14.40;6.53;;;35.60;99.90;;;;;;4995433;28;20545;-68
2023/09/11 13:49:24;;;;;;;12.80;6.23;;;35.40;99.90;;;;;;4979003;28;20621;-72
2023/09/11 13:51:52;;;;;;;16.33;6.33;;;35.20;99.90;;;;;;4996362;28;20466;-73
2023/09/11 13:54:21;;;;;;;18.33;7.27;;;34.70;99.90;;;;;;4996331;28;20161;-67
2023/09/11 13:56:48;;;;;;;15.20;6.47;;;34.50;99.90;;;;;;4994782;28;20427;-67
2023/09/11 13:59:14;;;;;;;8.87;5.60;;;34.70;99.90;;;;;;4996490;28;20784;-72
2023/09/11 14:01:40;;;;;;;7.90;5.60;;;34.90;99.90;;;;;;4996309;28;20415;-67
2023/09/11 14:04:05;;;;;;;13.70;6.80;;;35.50;99.90;;;;;;4996340;28;20173;-68
2023/09/11 14:06:31;;;;;;;14.60;7.23;;;36.30;99.90;;;;;;4995204;28;20208;-71